sensor_id;sensor_type;location;lat;lon;timestamp;P1;durP1;ratioP1;P2;durP2;ratioP2
52272;SDS011;38227;50.942;4.016;2023-04-05T00:01:41;12.23;;;6.12;;
52272;SDS011;38227;50.942;4.016;2023-04-05T00:04:15;11.32;;;6.00;;
52272;SDS011;38227;50.942;4.016;2023-04-05T00:06:52;9.80;;;5.87;;
52272;SDS011;38227;50.942;4.016;2023-04-05T00:09:21;8.93;;;4.87;;
52272;SDS011;38227;50.942;4.016;2023-04-05T00:11:55;9.23;;;5.45;;
52272;SDS011;38227;50.942;4.016;2023-04-05T00:14:42;11.68;;;6.18;;
52272;SDS011;38227;50.942;4.016;2023-04-05T00:17:21;11.25;;;5.72;;
52272;SDS011;38227;50.942;4.016;2023-04-05T00:19:54;12.30;;;5.65;;
52272;SDS011;38227;50.942;4.016;2023-04-05T00:22:34;10.20;;;5.15;;
52272;SDS011;38227;50.942;4.016;2023-04-05T00:25:04;9.77;;;5.68;;
52272;SDS011;38227;50.942;4.016;2023-04-05T00:27:38;10.90;;;6.22;;
52272;SDS011;38227;50.942;4.016;2023-04-05T00:30:12;11.88;;;6.07;;
52272;SDS011;38227;50.942;4.016;2023-04-05T00:32:47;13.73;;;5.90;;
52272;SDS011;38227;50.942;4.016;2023-04-05T00:35:30;10.63;;;6.05;;
52272;SDS011;38227;50.942;4.016;2023-04-05T00:38:02;12.95;;;6.28;;
52272;SDS011;38227;50.942;4.016;2023-04-05T00:40:34;11.77;;;5.90;;
52272;SDS011;38227;50.942;4.016;2023-04-05T00:43:06;8.88;;;5.50;;
52272;SDS011;38227;50.942;4.016;2023-04-05T00:45:38;11.27;;;5.80;;
52272;SDS011;38227;50.942;4.016;2023-04-05T00:48:15;10.60;;;6.40;;
52272;SDS011;38227;50.942;4.016;2023-04-05T00:50:49;11.73;;;6.57;;
52272;SDS011;38227;50.942;4.016;2023-04-05T00:53:22;9.48;;;5.30;;
52272;SDS011;38227;50.942;4.016;2023-04-05T00:55:55;9.48;;;5.65;;
52272;SDS011;38227;50.942;4.016;2023-04-05T00:58:34;11.23;;;5.85;;
52272;SDS011;38227;50.942;4.016;2023-04-05T01:03:56;10.05;;;5.68;;
52272;SDS011;38227;50.942;4.016;2023-04-05T01:09:44;13.90;;;5.87;;
52272;SDS011;38227;50.942;4.016;2023-04-05T01:12:35;12.27;;;5.90;;
52272;SDS011;38227;50.942;4.016;2023-04-05T01:15:16;11.32;;;6.20;;
52272;SDS011;38227;50.942;4.016;2023-04-05T01:17:44;10.75;;;5.57;;
52272;SDS011;38227;50.942;4.016;2023-04-05T01:20:14;11.50;;;6.07;;
52272;SDS011;38227;50.942;4.016;2023-04-05T01:32:45;12.20;;;5.78;;
52272;SDS011;38227;50.942;4.016;2023-04-05T01:35:24;12.55;;;5.87;;
52272;SDS011;38227;50.942;4.016;2023-04-05T01:38:26;11.52;;;6.35;;
52272;SDS011;38227;50.942;4.016;2023-04-05T01:41:03;11.02;;;6.20;;
52272;SDS011;38227;50.942;4.016;2023-04-05T01:43:32;9.05;;;5.07;;
52272;SDS011;38227;50.942;4.016;2023-04-05T01:46:02;12.23;;;5.85;;
52272;SDS011;38227;50.942;4.016;2023-04-05T01:48:33;10.50;;;5.35;;
52272;SDS011;38227;50.942;4.016;2023-04-05T01:51:04;11.32;;;6.05;;
52272;SDS011;38227;50.942;4.016;2023-04-05T01:53:42;11.27;;;5.72;;
52272;SDS011;38227;50.942;4.016;2023-04-05T01:56:13;11.55;;;5.85;;
52272;SDS011;38227;50.942;4.016;2023-04-05T01:58:44;11.82;;;5.80;;
52272;SDS011;38227;50.942;4.016;2023-04-05T02:01:23;9.00;;;5.45;;
52272;SDS011;38227;50.942;4.016;2023-04-05T02:04:01;12.77;;;6.25;;
52272;SDS011;38227;50.942;4.016;2023-04-05T02:06:30;10.77;;;5.70;;
52272;SDS011;38227;50.942;4.016;2023-04-05T02:09:03;12.68;;;6.32;;
52272;SDS011;38227;50.942;4.016;2023-04-05T02:11:51;12.57;;;6.20;;
52272;SDS011;38227;50.942;4.016;2023-04-05T02:14:26;12.37;;;7.10;;
52272;SDS011;38227;50.942;4.016;2023-04-05T02:16:59;11.02;;;6.12;;
52272;SDS011;38227;50.942;4.016;2023-04-05T02:19:45;11.00;;;5.65;;
52272;SDS011;38227;50.942;4.016;2023-04-05T02:22:20;11.15;;;6.07;;
52272;SDS011;38227;50.942;4.016;2023-04-05T02:24:54;11.20;;;6.18;;
52272;SDS011;38227;50.942;4.016;2023-04-05T02:27:27;12.32;;;6.85;;
52272;SDS011;38227;50.942;4.016;2023-04-05T02:30:06;11.48;;;6.43;;
52272;SDS011;38227;50.942;4.016;2023-04-05T02:32:37;11.38;;;6.00;;
52272;SDS011;38227;50.942;4.016;2023-04-05T02:35:08;10.10;;;5.60;;
52272;SDS011;38227;50.942;4.016;2023-04-05T02:37:41;12.18;;;6.87;;
52272;SDS011;38227;50.942;4.016;2023-04-05T02:40:12;11.35;;;6.43;;
52272;SDS011;38227;50.942;4.016;2023-04-05T02:42:50;13.30;;;6.37;;
52272;SDS011;38227;50.942;4.016;2023-04-05T02:45:23;13.20;;;6.60;;
52272;SDS011;38227;50.942;4.016;2023-04-05T02:48:00;12.25;;;5.90;;
52272;SDS011;38227;50.942;4.016;2023-04-05T02:50:32;9.93;;;5.78;;
52272;SDS011;38227;50.942;4.016;2023-04-05T02:53:15;11.50;;;6.07;;
52272;SDS011;38227;50.942;4.016;2023-04-05T02:55:54;11.45;;;5.75;;
52272;SDS011;38227;50.942;4.016;2023-04-05T02:58:25;12.10;;;6.20;;
52272;SDS011;38227;50.942;4.016;2023-04-05T03:00:56;10.70;;;6.12;;
52272;SDS011;38227;50.942;4.016;2023-04-05T03:03:35;12.70;;;6.75;;
52272;SDS011;38227;50.942;4.016;2023-04-05T03:06:06;10.65;;;6.07;;
52272;SDS011;38227;50.942;4.016;2023-04-05T03:08:37;13.88;;;6.35;;
52272;SDS011;38227;50.942;4.016;2023-04-05T03:11:09;10.63;;;5.80;;
52272;SDS011;38227;50.942;4.016;2023-04-05T03:13:42;10.98;;;5.62;;
52272;SDS011;38227;50.942;4.016;2023-04-05T03:16:21;9.90;;;6.22;;
52272;SDS011;38227;50.942;4.016;2023-04-05T03:18:53;12.45;;;6.30;;
52272;SDS011;38227;50.942;4.016;2023-04-05T03:21:23;9.77;;;5.72;;
52272;SDS011;38227;50.942;4.016;2023-04-05T03:24:00;10.82;;;6.10;;
52272;SDS011;38227;50.942;4.016;2023-04-05T03:26:32;14.60;;;7.12;;
52272;SDS011;38227;50.942;4.016;2023-04-05T03:29:12;12.98;;;6.93;;
52272;SDS011;38227;50.942;4.016;2023-04-05T03:31:44;10.30;;;6.10;;
52272;SDS011;38227;50.942;4.016;2023-04-05T03:34:30;13.27;;;6.43;;
52272;SDS011;38227;50.942;4.016;2023-04-05T03:37:04;11.65;;;5.93;;
52272;SDS011;38227;50.942;4.016;2023-04-05T03:39:38;14.32;;;6.47;;
52272;SDS011;38227;50.942;4.016;2023-04-05T03:42:09;10.82;;;6.03;;
52272;SDS011;38227;50.942;4.016;2023-04-05T03:44:51;13.25;;;6.05;;
52272;SDS011;38227;50.942;4.016;2023-04-05T03:47:30;14.15;;;6.78;;
52272;SDS011;38227;50.942;4.016;2023-04-05T03:50:01;12.98;;;6.75;;
52272;SDS011;38227;50.942;4.016;2023-04-05T03:52:34;12.93;;;6.43;;
52272;SDS011;38227;50.942;4.016;2023-04-05T03:55:06;15.25;;;7.32;;
52272;SDS011;38227;50.942;4.016;2023-04-05T03:57:43;11.77;;;6.70;;
52272;SDS011;38227;50.942;4.016;2023-04-05T04:00:14;13.50;;;6.90;;
52272;SDS011;38227;50.942;4.016;2023-04-05T04:02:51;12.60;;;6.75;;
52272;SDS011;38227;50.942;4.016;2023-04-05T04:05:21;14.40;;;7.57;;
52272;SDS011;38227;50.942;4.016;2023-04-05T04:07:52;13.23;;;6.53;;
52272;SDS011;38227;50.942;4.016;2023-04-05T04:10:23;11.75;;;6.37;;
52272;SDS011;38227;50.942;4.016;2023-04-05T04:12:55;15.23;;;6.95;;
52272;SDS011;38227;50.942;4.016;2023-04-05T04:15:27;13.40;;;6.25;;
52272;SDS011;38227;50.942;4.016;2023-04-05T04:18:05;13.55;;;6.50;;
52272;SDS011;38227;50.942;4.016;2023-04-05T04:20:37;11.90;;;6.00;;
52272;SDS011;38227;50.942;4.016;2023-04-05T04:23:09;11.93;;;6.55;;
52272;SDS011;38227;50.942;4.016;2023-04-05T04:25:40;10.60;;;5.78;;
52272;SDS011;38227;50.942;4.016;2023-04-05T04:28:11;14.45;;;6.95;;
52272;SDS011;38227;50.942;4.016;2023-04-05T04:30:50;11.52;;;6.57;;
52272;SDS011;38227;50.942;4.016;2023-04-05T04:33:29;10.63;;;6.20;;
52272;SDS011;38227;50.942;4.016;2023-04-05T04:36:04;12.70;;;6.53;;
52272;SDS011;38227;50.942;4.016;2023-04-05T04:38:39;11.60;;;6.47;;
52272;SDS011;38227;50.942;4.016;2023-04-05T04:41:14;14.25;;;6.80;;
52272;SDS011;38227;50.942;4.016;2023-04-05T04:43:48;14.70;;;7.57;;
52272;SDS011;38227;50.942;4.016;2023-04-05T04:46:19;13.52;;;6.47;;
52272;SDS011;38227;50.942;4.016;2023-04-05T04:48:54;13.73;;;6.90;;
52272;SDS011;38227;50.942;4.016;2023-04-05T04:51:28;13.75;;;7.22;;
52272;SDS011;38227;50.942;4.016;2023-04-05T04:54:00;12.98;;;7.53;;
52272;SDS011;38227;50.942;4.016;2023-04-05T04:56:32;12.98;;;7.00;;
52272;SDS011;38227;50.942;4.016;2023-04-05T04:59:09;13.73;;;7.35;;
52272;SDS011;38227;50.942;4.016;2023-04-05T05:01:39;14.70;;;6.90;;
52272;SDS011;38227;50.942;4.016;2023-04-05T05:04:11;13.55;;;7.00;;
52272;SDS011;38227;50.942;4.016;2023-04-05T05:06:40;12.60;;;6.80;;
52272;SDS011;38227;50.942;4.016;2023-04-05T05:09:10;13.75;;;6.72;;
52272;SDS011;38227;50.942;4.016;2023-04-05T05:11:39;12.25;;;6.90;;
52272;SDS011;38227;50.942;4.016;2023-04-05T05:14:09;12.82;;;6.75;;
52272;SDS011;38227;50.942;4.016;2023-04-05T05:16:40;11.68;;;6.95;;
52272;SDS011;38227;50.942;4.016;2023-04-05T05:19:19;14.10;;;7.10;;
52272;SDS011;38227;50.942;4.016;2023-04-05T05:21:51;15.27;;;7.07;;
52272;SDS011;38227;50.942;4.016;2023-04-05T05:24:22;11.73;;;6.25;;
52272;SDS011;38227;50.942;4.016;2023-04-05T05:26:59;13.70;;;7.10;;
52272;SDS011;38227;50.942;4.016;2023-04-05T05:29:30;13.18;;;7.03;;
52272;SDS011;38227;50.942;4.016;2023-04-05T05:32:02;13.90;;;7.40;;
52272;SDS011;38227;50.942;4.016;2023-04-05T05:34:38;11.85;;;6.68;;
52272;SDS011;38227;50.942;4.016;2023-04-05T05:37:10;15.07;;;7.47;;
52272;SDS011;38227;50.942;4.016;2023-04-05T05:39:44;13.07;;;6.87;;
52272;SDS011;38227;50.942;4.016;2023-04-05T05:42:17;14.95;;;6.72;;
52272;SDS011;38227;50.942;4.016;2023-04-05T05:44:49;12.82;;;6.45;;
52272;SDS011;38227;50.942;4.016;2023-04-05T05:47:20;15.88;;;7.68;;
52272;SDS011;38227;50.942;4.016;2023-04-05T05:49:51;14.32;;;7.03;;
52272;SDS011;38227;50.942;4.016;2023-04-05T05:52:23;14.73;;;7.30;;
52272;SDS011;38227;50.942;4.016;2023-04-05T05:54:55;12.18;;;6.40;;
52272;SDS011;38227;50.942;4.016;2023-04-05T05:57:26;13.02;;;6.85;;
52272;SDS011;38227;50.942;4.016;2023-04-05T06:00:04;12.43;;;6.82;;
52272;SDS011;38227;50.942;4.016;2023-04-05T06:02:35;13.25;;;7.07;;
52272;SDS011;38227;50.942;4.016;2023-04-05T06:05:10;11.98;;;6.65;;
52272;SDS011;38227;50.942;4.016;2023-04-05T06:07:44;12.45;;;7.12;;
52272;SDS011;38227;50.942;4.016;2023-04-05T06:10:30;13.52;;;6.95;;
52272;SDS011;38227;50.942;4.016;2023-04-05T06:12:59;15.35;;;7.22;;
52272;SDS011;38227;50.942;4.016;2023-04-05T06:15:32;14.85;;;7.18;;
52272;SDS011;38227;50.942;4.016;2023-04-05T06:18:14;12.55;;;6.90;;
52272;SDS011;38227;50.942;4.016;2023-04-05T06:20:56;16.73;;;7.53;;
52272;SDS011;38227;50.942;4.016;2023-04-05T06:23:30;15.20;;;8.20;;
52272;SDS011;38227;50.942;4.016;2023-04-05T06:26:19;18.33;;;8.65;;
52272;SDS011;38227;50.942;4.016;2023-04-05T06:28:51;14.75;;;7.95;;
52272;SDS011;38227;50.942;4.016;2023-04-05T06:31:50;15.45;;;7.78;;
52272;SDS011;38227;50.942;4.016;2023-04-05T06:34:23;14.15;;;7.60;;
52272;SDS011;38227;50.942;4.016;2023-04-05T06:37:03;16.80;;;8.45;;
52272;SDS011;38227;50.942;4.016;2023-04-05T06:39:42;14.95;;;7.43;;
52272;SDS011;38227;50.942;4.016;2023-04-05T06:42:22;14.23;;;7.55;;
52272;SDS011;38227;50.942;4.016;2023-04-05T06:45:00;16.75;;;8.45;;
52272;SDS011;38227;50.942;4.016;2023-04-05T06:47:39;15.18;;;7.78;;
52272;SDS011;38227;50.942;4.016;2023-04-05T06:50:35;10.50;;;5.87;;
52272;SDS011;38227;50.942;4.016;2023-04-05T06:53:06;11.65;;;6.35;;
52272;SDS011;38227;50.942;4.016;2023-04-05T06:55:47;9.77;;;5.60;;
52272;SDS011;38227;50.942;4.016;2023-04-05T06:58:21;9.05;;;5.10;;
52272;SDS011;38227;50.942;4.016;2023-04-05T07:00:55;11.30;;;5.87;;
52272;SDS011;38227;50.942;4.016;2023-04-05T07:03:28;9.05;;;5.75;;
52272;SDS011;38227;50.942;4.016;2023-04-05T07:05:59;8.60;;;5.55;;
52272;SDS011;38227;50.942;4.016;2023-04-05T07:08:40;10.15;;;5.80;;
52272;SDS011;38227;50.942;4.016;2023-04-05T07:11:13;10.38;;;5.85;;
52272;SDS011;38227;50.942;4.016;2023-04-05T07:13:48;9.70;;;5.87;;
52272;SDS011;38227;50.942;4.016;2023-04-05T07:16:29;9.55;;;5.95;;
52272;SDS011;38227;50.942;4.016;2023-04-05T07:19:10;10.05;;;5.82;;
52272;SDS011;38227;50.942;4.016;2023-04-05T07:21:55;14.07;;;8.00;;
52272;SDS011;38227;50.942;4.016;2023-04-05T07:24:36;13.98;;;7.30;;
52272;SDS011;38227;50.942;4.016;2023-04-05T07:27:16;12.05;;;7.03;;
52272;SDS011;38227;50.942;4.016;2023-04-05T07:29:56;12.80;;;7.20;;
52272;SDS011;38227;50.942;4.016;2023-04-05T07:32:43;11.30;;;5.97;;
52272;SDS011;38227;50.942;4.016;2023-04-05T07:35:20;11.15;;;5.80;;
52272;SDS011;38227;50.942;4.016;2023-04-05T07:37:54;9.35;;;5.62;;
52272;SDS011;38227;50.942;4.016;2023-04-05T07:40:35;9.18;;;5.00;;
52272;SDS011;38227;50.942;4.016;2023-04-05T07:43:12;7.35;;;4.85;;
52272;SDS011;38227;50.942;4.016;2023-04-05T07:45:47;7.60;;;4.95;;
52272;SDS011;38227;50.942;4.016;2023-04-05T07:48:20;7.75;;;5.07;;
52272;SDS011;38227;50.942;4.016;2023-04-05T07:50:52;7.43;;;4.80;;
52272;SDS011;38227;50.942;4.016;2023-04-05T07:53:36;7.82;;;4.72;;
52272;SDS011;38227;50.942;4.016;2023-04-05T07:56:10;6.40;;;4.20;;
52272;SDS011;38227;50.942;4.016;2023-04-05T07:58:57;7.28;;;4.20;;
52272;SDS011;38227;50.942;4.016;2023-04-05T08:01:37;4.85;;;3.72;;
52272;SDS011;38227;50.942;4.016;2023-04-05T08:04:18;6.00;;;3.92;;
52272;SDS011;38227;50.942;4.016;2023-04-05T08:07:05;8.25;;;4.75;;
52272;SDS011;38227;50.942;4.016;2023-04-05T08:09:38;5.37;;;3.40;;
52272;SDS011;38227;50.942;4.016;2023-04-05T08:12:14;5.65;;;3.53;;
52272;SDS011;38227;50.942;4.016;2023-04-05T08:15:00;6.62;;;3.65;;
52272;SDS011;38227;50.942;4.016;2023-04-05T08:17:40;5.25;;;3.50;;
52272;SDS011;38227;50.942;4.016;2023-04-05T08:20:16;6.60;;;3.53;;
52272;SDS011;38227;50.942;4.016;2023-04-05T08:22:56;5.32;;;3.65;;
52272;SDS011;38227;50.942;4.016;2023-04-05T08:25:34;5.47;;;2.90;;
52272;SDS011;38227;50.942;4.016;2023-04-05T08:28:14;5.32;;;3.15;;
52272;SDS011;38227;50.942;4.016;2023-04-05T08:30:52;4.82;;;3.22;;
52272;SDS011;38227;50.942;4.016;2023-04-05T08:33:32;5.62;;;3.42;;
52272;SDS011;38227;50.942;4.016;2023-04-05T08:36:06;6.35;;;3.70;;
52272;SDS011;38227;50.942;4.016;2023-04-05T08:38:46;5.75;;;3.40;;
52272;SDS011;38227;50.942;4.016;2023-04-05T08:41:32;4.30;;;3.12;;
52272;SDS011;38227;50.942;4.016;2023-04-05T08:44:17;5.07;;;2.90;;
52272;SDS011;38227;50.942;4.016;2023-04-05T08:46:57;4.57;;;2.92;;
52272;SDS011;38227;50.942;4.016;2023-04-05T08:49:33;5.25;;;2.75;;
52272;SDS011;38227;50.942;4.016;2023-04-05T08:52:07;4.80;;;3.05;;
52272;SDS011;38227;50.942;4.016;2023-04-05T08:54:40;5.18;;;2.87;;
52272;SDS011;38227;50.942;4.016;2023-04-05T08:57:21;4.87;;;3.30;;
52272;SDS011;38227;50.942;4.016;2023-04-05T09:00:03;5.62;;;2.78;;
52272;SDS011;38227;50.942;4.016;2023-04-05T09:02:46;4.65;;;3.25;;
52272;SDS011;38227;50.942;4.016;2023-04-05T09:05:29;5.22;;;2.97;;
52272;SDS011;38227;50.942;4.016;2023-04-05T09:07:59;4.65;;;2.67;;
52272;SDS011;38227;50.942;4.016;2023-04-05T09:10:40;4.15;;;2.78;;
52272;SDS011;38227;50.942;4.016;2023-04-05T09:13:19;3.97;;;2.65;;
52272;SDS011;38227;50.942;4.016;2023-04-05T09:16:00;6.07;;;3.53;;
52272;SDS011;38227;50.942;4.016;2023-04-05T09:18:43;4.72;;;2.40;;
52272;SDS011;38227;50.942;4.016;2023-04-05T09:21:18;3.83;;;2.75;;
52272;SDS011;38227;50.942;4.016;2023-04-05T09:23:53;4.12;;;2.70;;
52272;SDS011;38227;50.942;4.016;2023-04-05T09:26:24;3.97;;;2.58;;
52272;SDS011;38227;50.942;4.016;2023-04-05T09:29:02;4.97;;;2.80;;
52272;SDS011;38227;50.942;4.016;2023-04-05T09:31:42;5.00;;;2.60;;
52272;SDS011;38227;50.942;4.016;2023-04-05T09:34:24;4.15;;;2.50;;
52272;SDS011;38227;50.942;4.016;2023-04-05T09:36:56;3.70;;;2.75;;
52272;SDS011;38227;50.942;4.016;2023-04-05T09:39:30;4.43;;;2.80;;
52272;SDS011;38227;50.942;4.016;2023-04-05T09:42:17;4.07;;;2.80;;
52272;SDS011;38227;50.942;4.016;2023-04-05T09:44:55;4.18;;;2.78;;
52272;SDS011;38227;50.942;4.016;2023-04-05T09:47:32;4.10;;;2.70;;
52272;SDS011;38227;50.942;4.016;2023-04-05T09:55:59;5.18;;;2.90;;
52272;SDS011;38227;50.942;4.016;2023-04-05T09:58:40;5.97;;;3.20;;
52272;SDS011;38227;50.942;4.016;2023-04-05T10:03:47;3.80;;;2.80;;
52272;SDS011;38227;50.942;4.016;2023-04-05T10:06:19;5.97;;;3.58;;
52272;SDS011;38227;50.942;4.016;2023-04-05T10:08:50;4.37;;;2.95;;
52272;SDS011;38227;50.942;4.016;2023-04-05T10:11:29;4.12;;;3.00;;
52272;SDS011;38227;50.942;4.016;2023-04-05T10:14:07;6.05;;;3.00;;
52272;SDS011;38227;50.942;4.016;2023-04-05T10:16:50;5.32;;;3.10;;
52272;SDS011;38227;50.942;4.016;2023-04-05T10:19:30;4.22;;;2.78;;
52272;SDS011;38227;50.942;4.016;2023-04-05T10:22:16;7.03;;;3.27;;
52272;SDS011;38227;50.942;4.016;2023-04-05T10:25:04;4.68;;;2.87;;
52272;SDS011;38227;50.942;4.016;2023-04-05T10:27:47;5.35;;;3.00;;
52272;SDS011;38227;50.942;4.016;2023-04-05T10:42:36;7.70;;;3.40;;
52272;SDS011;38227;50.942;4.016;2023-04-05T10:45:08;4.65;;;2.97;;
52272;SDS011;38227;50.942;4.016;2023-04-05T10:47:41;5.10;;;3.45;;
52272;SDS011;38227;50.942;4.016;2023-04-05T10:50:19;9.05;;;3.92;;
52272;SDS011;38227;50.942;4.016;2023-04-05T10:52:52;5.37;;;3.53;;
52272;SDS011;38227;50.942;4.016;2023-04-05T10:55:22;6.65;;;3.60;;
52272;SDS011;38227;50.942;4.016;2023-04-05T10:57:51;6.85;;;3.70;;
52272;SDS011;38227;50.942;4.016;2023-04-05T11:00:23;6.80;;;3.75;;
52272;SDS011;38227;50.942;4.016;2023-04-05T11:02:54;6.75;;;3.65;;
52272;SDS011;38227;50.942;4.016;2023-04-05T11:05:32;6.50;;;4.07;;
52272;SDS011;38227;50.942;4.016;2023-04-05T11:08:03;7.35;;;3.87;;
52272;SDS011;38227;50.942;4.016;2023-04-05T11:10:37;7.37;;;4.20;;
52272;SDS011;38227;50.942;4.016;2023-04-05T11:13:46;8.73;;;3.65;;
52272;SDS011;38227;50.942;4.016;2023-04-05T11:16:22;6.30;;;3.50;;
52272;SDS011;38227;50.942;4.016;2023-04-05T11:19:08;6.12;;;3.45;;
52272;SDS011;38227;50.942;4.016;2023-04-05T11:21:48;6.65;;;3.70;;
52272;SDS011;38227;50.942;4.016;2023-04-05T11:27:36;5.43;;;3.20;;
52272;SDS011;38227;50.942;4.016;2023-04-05T11:30:06;7.15;;;4.07;;
52272;SDS011;38227;50.942;4.016;2023-04-05T11:32:42;7.15;;;3.60;;
52272;SDS011;38227;50.942;4.016;2023-04-05T11:35:17;6.80;;;3.78;;
52272;SDS011;38227;50.942;4.016;2023-04-05T11:40:51;6.45;;;3.70;;
52272;SDS011;38227;50.942;4.016;2023-04-05T11:43:37;7.12;;;4.05;;
52272;SDS011;38227;50.942;4.016;2023-04-05T11:46:06;6.00;;;3.37;;
52272;SDS011;38227;50.942;4.016;2023-04-05T11:48:36;7.37;;;4.30;;
52272;SDS011;38227;50.942;4.016;2023-04-05T11:51:11;7.32;;;3.87;;
52272;SDS011;38227;50.942;4.016;2023-04-05T11:53:46;6.87;;;3.53;;
52272;SDS011;38227;50.942;4.016;2023-04-05T11:56:18;5.47;;;3.45;;
52272;SDS011;38227;50.942;4.016;2023-04-05T11:58:50;6.95;;;3.47;;
52272;SDS011;38227;50.942;4.016;2023-04-05T12:01:37;6.97;;;3.72;;
52272;SDS011;38227;50.942;4.016;2023-04-05T12:04:12;5.55;;;3.25;;
52272;SDS011;38227;50.942;4.016;2023-04-05T12:06:44;6.97;;;3.75;;
52272;SDS011;38227;50.942;4.016;2023-04-05T12:09:15;7.50;;;3.60;;
52272;SDS011;38227;50.942;4.016;2023-04-05T12:11:55;6.68;;;3.78;;
52272;SDS011;38227;50.942;4.016;2023-04-05T12:14:27;9.20;;;4.18;;
52272;SDS011;38227;50.942;4.016;2023-04-05T12:17:04;5.60;;;3.30;;
52272;SDS011;38227;50.942;4.016;2023-04-05T12:19:34;5.30;;;3.30;;
52272;SDS011;38227;50.942;4.016;2023-04-05T12:22:05;7.18;;;3.83;;
52272;SDS011;38227;50.942;4.016;2023-04-05T12:24:43;6.65;;;3.80;;
52272;SDS011;38227;50.942;4.016;2023-04-05T12:27:21;6.30;;;3.40;;
52272;SDS011;38227;50.942;4.016;2023-04-05T12:33:00;6.75;;;4.15;;
52272;SDS011;38227;50.942;4.016;2023-04-05T12:35:43;5.53;;;3.65;;
52272;SDS011;38227;50.942;4.016;2023-04-05T12:38:20;7.32;;;3.83;;
52272;SDS011;38227;50.942;4.016;2023-04-05T12:40:59;5.72;;;3.65;;
52272;SDS011;38227;50.942;4.016;2023-04-05T12:43:38;6.55;;;3.55;;
52272;SDS011;38227;50.942;4.016;2023-04-05T12:46:10;7.62;;;3.40;;
52272;SDS011;38227;50.942;4.016;2023-04-05T12:53:55;7.35;;;3.97;;
52272;SDS011;38227;50.942;4.016;2023-04-05T12:56:28;8.00;;;3.87;;
52272;SDS011;38227;50.942;4.016;2023-04-05T12:59:02;6.20;;;3.40;;
52272;SDS011;38227;50.942;4.016;2023-04-05T13:01:43;7.32;;;3.83;;
52272;SDS011;38227;50.942;4.016;2023-04-05T13:04:17;6.53;;;3.70;;
52272;SDS011;38227;50.942;4.016;2023-04-05T13:06:48;5.87;;;3.60;;
52272;SDS011;38227;50.942;4.016;2023-04-05T13:09:19;6.10;;;3.87;;
52272;SDS011;38227;50.942;4.016;2023-04-05T13:11:51;6.93;;;3.75;;
52272;SDS011;38227;50.942;4.016;2023-04-05T13:14:23;6.07;;;3.42;;
52272;SDS011;38227;50.942;4.016;2023-04-05T13:16:54;8.30;;;4.28;;
52272;SDS011;38227;50.942;4.016;2023-04-05T13:19:32;7.05;;;3.80;;
52272;SDS011;38227;50.942;4.016;2023-04-05T13:22:02;6.32;;;3.53;;
52272;SDS011;38227;50.942;4.016;2023-04-05T13:24:33;6.85;;;3.67;;
52272;SDS011;38227;50.942;4.016;2023-04-05T13:27:05;6.10;;;3.80;;
52272;SDS011;38227;50.942;4.016;2023-04-05T13:29:34;6.80;;;3.70;;
52272;SDS011;38227;50.942;4.016;2023-04-05T13:32:05;6.40;;;3.25;;
52272;SDS011;38227;50.942;4.016;2023-04-05T13:34:37;7.18;;;3.58;;
52272;SDS011;38227;50.942;4.016;2023-04-05T13:37:09;5.85;;;3.50;;
52272;SDS011;38227;50.942;4.016;2023-04-05T13:39:41;7.15;;;3.50;;
52272;SDS011;38227;50.942;4.016;2023-04-05T13:42:13;6.60;;;3.30;;
52272;SDS011;38227;50.942;4.016;2023-04-05T13:44:44;7.25;;;3.55;;
52272;SDS011;38227;50.942;4.016;2023-04-05T13:47:14;6.97;;;3.60;;
52272;SDS011;38227;50.942;4.016;2023-04-05T13:49:48;7.50;;;3.58;;
52272;SDS011;38227;50.942;4.016;2023-04-05T13:52:20;6.62;;;2.90;;
52272;SDS011;38227;50.942;4.016;2023-04-05T13:54:50;6.55;;;3.67;;
52272;SDS011;38227;50.942;4.016;2023-04-05T13:57:28;6.65;;;3.80;;
52272;SDS011;38227;50.942;4.016;2023-04-05T13:59:58;8.77;;;3.90;;
52272;SDS011;38227;50.942;4.016;2023-04-05T14:02:30;6.82;;;3.40;;
52272;SDS011;38227;50.942;4.016;2023-04-05T14:05:09;7.72;;;3.67;;
52272;SDS011;38227;50.942;4.016;2023-04-05T14:07:50;6.70;;;3.65;;
52272;SDS011;38227;50.942;4.016;2023-04-05T14:10:25;5.40;;;3.12;;
52272;SDS011;38227;50.942;4.016;2023-04-05T14:13:08;7.47;;;3.62;;
52272;SDS011;38227;50.942;4.016;2023-04-05T14:15:41;5.90;;;3.30;;
52272;SDS011;38227;50.942;4.016;2023-04-05T14:18:19;5.40;;;2.97;;
52272;SDS011;38227;50.942;4.016;2023-04-05T14:20:48;5.85;;;3.45;;
52272;SDS011;38227;50.942;4.016;2023-04-05T14:23:18;5.90;;;3.22;;
52272;SDS011;38227;50.942;4.016;2023-04-05T14:25:52;6.60;;;3.72;;
52272;SDS011;38227;50.942;4.016;2023-04-05T14:28:29;7.05;;;3.47;;
52272;SDS011;38227;50.942;4.016;2023-04-05T14:30:58;5.43;;;3.20;;
52272;SDS011;38227;50.942;4.016;2023-04-05T14:33:30;4.70;;;2.78;;
52272;SDS011;38227;50.942;4.016;2023-04-05T14:36:08;7.18;;;3.87;;
52272;SDS011;38227;50.942;4.016;2023-04-05T14:38:39;7.30;;;3.55;;
52272;SDS011;38227;50.942;4.016;2023-04-05T14:41:10;6.10;;;3.10;;
52272;SDS011;38227;50.942;4.016;2023-04-05T14:43:39;6.00;;;3.00;;
52272;SDS011;38227;50.942;4.016;2023-04-05T14:46:10;5.65;;;2.80;;
52272;SDS011;38227;50.942;4.016;2023-04-05T14:48:47;5.97;;;3.40;;
52272;SDS011;38227;50.942;4.016;2023-04-05T14:51:18;8.77;;;3.42;;
52272;SDS011;38227;50.942;4.016;2023-04-05T14:53:55;6.93;;;3.37;;
52272;SDS011;38227;50.942;4.016;2023-04-05T14:56:33;5.93;;;3.08;;
52272;SDS011;38227;50.942;4.016;2023-04-05T14:59:13;5.93;;;2.92;;
52272;SDS011;38227;50.942;4.016;2023-04-05T15:01:52;5.70;;;3.17;;
52272;SDS011;38227;50.942;4.016;2023-04-05T15:04:33;5.90;;;3.20;;
52272;SDS011;38227;50.942;4.016;2023-04-05T15:07:06;5.85;;;3.37;;
52272;SDS011;38227;50.942;4.016;2023-04-05T15:09:52;6.12;;;3.20;;
52272;SDS011;38227;50.942;4.016;2023-04-05T15:12:32;5.75;;;3.12;;
52272;SDS011;38227;50.942;4.016;2023-04-05T15:15:12;8.27;;;3.40;;
52272;SDS011;38227;50.942;4.016;2023-04-05T15:17:44;4.87;;;2.80;;
52272;SDS011;38227;50.942;4.016;2023-04-05T15:20:22;6.05;;;3.30;;
52272;SDS011;38227;50.942;4.016;2023-04-05T15:22:55;7.12;;;3.37;;
52272;SDS011;38227;50.942;4.016;2023-04-05T15:25:35;6.37;;;3.10;;
52272;SDS011;38227;50.942;4.016;2023-04-05T15:28:21;7.60;;;3.75;;
52272;SDS011;38227;50.942;4.016;2023-04-05T15:31:00;6.00;;;3.22;;
52272;SDS011;38227;50.942;4.016;2023-04-05T15:33:34;4.80;;;3.03;;
52272;SDS011;38227;50.942;4.016;2023-04-05T15:36:08;6.93;;;3.35;;
52272;SDS011;38227;50.942;4.016;2023-04-05T15:38:42;6.75;;;3.10;;
52272;SDS011;38227;50.942;4.016;2023-04-05T15:41:12;5.43;;;3.17;;
52272;SDS011;38227;50.942;4.016;2023-04-05T15:43:58;5.62;;;3.03;;
52272;SDS011;38227;50.942;4.016;2023-04-05T15:46:28;5.25;;;2.90;;
52272;SDS011;38227;50.942;4.016;2023-04-05T15:49:02;6.28;;;3.65;;
52272;SDS011;38227;50.942;4.016;2023-04-05T15:51:35;7.57;;;3.28;;
52272;SDS011;38227;50.942;4.016;2023-04-05T15:54:21;6.03;;;3.35;;
52272;SDS011;38227;50.942;4.016;2023-04-05T15:56:55;8.05;;;3.37;;
52272;SDS011;38227;50.942;4.016;2023-04-05T15:59:29;7.03;;;3.50;;
52272;SDS011;38227;50.942;4.016;2023-04-05T16:02:03;6.50;;;3.45;;
52272;SDS011;38227;50.942;4.016;2023-04-05T16:04:43;6.20;;;3.30;;
52272;SDS011;38227;50.942;4.016;2023-04-05T16:07:12;7.18;;;3.70;;
52272;SDS011;38227;50.942;4.016;2023-04-05T16:09:43;7.45;;;3.35;;
52272;SDS011;38227;50.942;4.016;2023-04-05T16:12:13;7.47;;;3.55;;
52272;SDS011;38227;50.942;4.016;2023-04-05T16:14:47;6.07;;;3.22;;
52272;SDS011;38227;50.942;4.016;2023-04-05T16:17:25;7.62;;;3.85;;
52272;SDS011;38227;50.942;4.016;2023-04-05T16:19:56;6.93;;;3.17;;
52272;SDS011;38227;50.942;4.016;2023-04-05T16:22:28;7.68;;;3.65;;
52272;SDS011;38227;50.942;4.016;2023-04-05T16:24:59;7.50;;;3.40;;